createdAt,value
2022-09-07T00:01:26.893Z,12.08
2022-09-07T00:03:59.649Z,12.05
2022-09-07T00:06:31.190Z,12.02
2022-09-07T00:09:02.506Z,12.00
2022-09-07T00:11:33.612Z,11.97
2022-09-07T00:14:05.693Z,11.93
2022-09-07T00:16:36.794Z,11.91
2022-09-07T00:19:08.056Z,11.88
2022-09-07T00:21:39.355Z,11.85
2022-09-07T00:24:10.844Z,11.82
2022-09-07T00:26:41.813Z,11.79
2022-09-07T00:29:12.973Z,11.77
2022-09-07T00:31:44.016Z,11.73
2022-09-07T00:34:15.095Z,11.70
2022-09-07T00:36:46.089Z,11.67
2022-09-07T00:39:17.108Z,11.63
2022-09-07T00:41:48.026Z,11.62
2022-09-07T00:44:49.531Z,11.60
2022-09-07T00:47:24.518Z,11.58
2022-09-07T00:50:01.209Z,11.56
2022-09-07T00:52:34.797Z,11.54
2022-09-07T00:55:11.540Z,11.51
2022-09-07T00:57:46.973Z,11.50
2022-09-07T01:00:18.155Z,11.49
2022-09-07T01:02:52.289Z,11.48
2022-09-07T01:05:27.649Z,11.46
2022-09-07T01:07:59.686Z,11.44
2022-09-07T01:10:32.852Z,11.42
2022-09-07T01:13:03.997Z,11.40
2022-09-07T01:15:48.910Z,11.38
2022-09-07T01:18:32.888Z,11.37
2022-09-07T01:21:28.367Z,11.35
2022-09-07T01:24:44.269Z,11.32
2022-09-07T01:27:58.729Z,11.31
2022-09-07T01:30:33.006Z,11.30
2022-09-07T01:33:24.187Z,11.29
2022-09-07T01:36:04.499Z,11.28
2022-09-07T01:38:42.556Z,11.25
2022-09-07T01:41:19.438Z,11.22
2022-09-07T01:43:55.735Z,11.21
2022-09-07T01:46:31.306Z,11.19
2022-09-07T01:49:09.469Z,11.17
2022-09-07T01:51:46.516Z,11.15
2022-09-07T01:54:23.652Z,11.12
2022-09-07T01:56:58.889Z,11.10
2022-09-07T01:59:31.131Z,11.07
2022-09-07T02:02:07.004Z,11.05
2022-09-07T02:04:44.656Z,11.04
2022-09-07T02:07:21.891Z,11.02
2022-09-07T02:09:59.128Z,10.99
2022-09-07T02:12:37.229Z,10.97
2022-09-07T02:15:15.781Z,10.95
2022-09-07T02:17:51.483Z,10.92
2022-09-07T02:20:27.997Z,10.89
2022-09-07T02:23:01.823Z,10.87
2022-09-07T02:25:38.510Z,10.84
2022-09-07T02:28:13.645Z,10.82
2022-09-07T02:30:45.361Z,10.81
2022-09-07T02:33:16.651Z,10.79
2022-09-07T02:35:48.230Z,10.78
2022-09-07T02:38:19.542Z,10.77
2022-09-07T02:40:55.297Z,10.76
2022-09-07T02:43:28.915Z,10.75
2022-09-07T02:46:12.576Z,10.72
2022-09-07T02:48:51.516Z,10.68
2022-09-07T02:51:30.460Z,10.64
2022-09-07T02:54:20.866Z,10.61
2022-09-07T02:57:03.410Z,10.56
2022-09-07T02:59:49.513Z,10.53
2022-09-07T03:02:27.839Z,10.50
2022-09-07T03:05:05.015Z,10.46
2022-09-07T03:07:44.126Z,10.43
2022-09-07T03:10:16.152Z,10.40
2022-09-07T03:12:49.078Z,10.37
2022-09-07T03:15:21.960Z,10.33
2022-09-07T03:17:53.055Z,10.30
2022-09-07T03:20:25.303Z,10.28
2022-09-07T03:22:56.434Z,10.25
2022-09-07T03:25:27.788Z,10.21
2022-09-07T03:27:58.862Z,10.19
2022-09-07T03:30:30.409Z,10.18
2022-09-07T03:33:01.751Z,10.17
2022-09-07T03:35:32.757Z,10.17
2022-09-07T03:38:03.844Z,10.15
2022-09-07T03:40:34.802Z,10.13
2022-09-07T03:43:06.033Z,10.12
2022-09-07T03:45:37.062Z,10.12
2022-09-07T03:48:08.778Z,10.13
2022-09-07T03:50:40.123Z,10.12
2022-09-07T03:53:15.730Z,10.12
2022-09-07T03:55:56.395Z,10.13
2022-09-07T03:58:27.313Z,10.11
2022-09-07T04:00:59.312Z,10.09
2022-09-07T04:03:30.350Z,10.08
2022-09-07T04:06:03.577Z,10.07
2022-09-07T04:08:36.759Z,10.05
2022-09-07T04:11:09.962Z,10.05
2022-09-07T04:13:41.645Z,10.05
2022-09-07T04:16:18.246Z,10.05
2022-09-07T04:18:50.738Z,10.06
2022-09-07T04:21:22.290Z,10.08
2022-09-07T04:23:53.990Z,10.08
2022-09-07T04:26:26.736Z,10.10
2022-09-07T04:28:58.352Z,10.15
2022-09-07T04:31:30.106Z,10.22
2022-09-07T04:34:01.053Z,10.45
2022-09-07T04:36:33.686Z,10.89
2022-09-07T04:39:06.510Z,11.29
2022-09-07T04:41:38.182Z,11.80
2022-09-07T04:44:11.722Z,12.36
2022-09-07T04:46:46.279Z,12.96
2022-09-07T04:49:21.735Z,13.56
2022-09-07T04:51:52.780Z,14.16
2022-09-07T04:54:26.499Z,14.71
2022-09-07T04:57:01.888Z,15.24
2022-09-07T04:59:36.010Z,15.76
2022-09-07T05:02:07.467Z,16.30
2022-09-07T05:04:39.141Z,16.84
2022-09-07T05:07:10.173Z,17.39
2022-09-07T05:09:43.921Z,17.94
2022-09-07T05:12:16.456Z,18.54
2022-09-07T05:14:47.440Z,19.22
2022-09-07T05:17:19.356Z,19.94
2022-09-07T05:19:50.662Z,20.74
2022-09-07T05:22:22.557Z,21.52
2022-09-07T05:24:53.704Z,22.29
2022-09-07T05:27:24.609Z,22.97
2022-09-07T05:30:04.307Z,23.51
2022-09-07T05:32:37.959Z,24.17
2022-09-07T05:35:10.120Z,24.75
2022-09-07T05:37:41.662Z,25.20
2022-09-07T05:40:15.607Z,25.50
2022-09-07T05:42:46.717Z,25.74
2022-09-07T05:45:20.177Z,25.92
2022-09-07T05:47:54.425Z,26.13
2022-09-07T05:50:25.389Z,26.34
2022-09-07T05:52:56.624Z,26.58
2022-09-07T05:55:30.420Z,26.87
2022-09-07T05:58:04.899Z,27.14
2022-09-07T06:00:36.329Z,27.39
2022-09-07T06:03:07.816Z,27.71
2022-09-07T06:05:39.023Z,27.95
2022-09-07T06:08:11.324Z,28.04
2022-09-07T06:10:44.530Z,28.04
2022-09-07T06:13:16.603Z,28.12
2022-09-07T06:15:47.752Z,28.28
2022-09-07T06:18:18.957Z,28.53
2022-09-07T06:20:56.226Z,28.92
2022-09-07T06:23:27.308Z,29.33
2022-09-07T06:26:00.671Z,29.71
2022-09-07T06:28:32.896Z,30.09
2022-09-07T06:31:06.228Z,30.43
2022-09-07T06:33:38.230Z,30.80
2022-09-07T06:36:13.217Z,31.18
2022-09-07T06:38:44.639Z,31.67
2022-09-07T06:44:12.605Z,32.46
2022-09-07T06:49:34.806Z,32.19
2022-09-07T06:52:06.332Z,32.06
2022-09-07T06:57:29.834Z,32.21
2022-09-07T07:00:04.742Z,32.35
2022-09-07T07:02:35.964Z,32.49
2022-09-07T07:05:10.626Z,32.52
2022-09-07T07:07:39.936Z,32.45
2022-09-07T07:10:11.817Z,32.32
2022-09-07T07:15:15.312Z,32.32
2022-09-07T07:17:53.163Z,32.32
2022-09-07T07:20:27.198Z,32.32
2022-09-07T07:22:58.275Z,32.31
2022-09-07T07:25:37.706Z,32.14
2022-09-07T07:31:07.208Z,31.20
2022-09-07T07:33:43.712Z,30.98
2022-09-07T07:36:17.546Z,30.62
2022-09-07T07:39:05.622Z,30.28
2022-09-07T07:44:23.440Z,30.10
2022-09-07T07:46:54.377Z,30.44
2022-09-07T07:49:26.121Z,30.80
2022-09-07T07:54:49.788Z,31.25
2022-09-07T07:57:21.212Z,31.25
2022-09-07T07:59:52.147Z,31.27
2022-09-07T08:02:26.568Z,31.13
2022-09-07T08:04:57.510Z,30.88
2022-09-07T08:07:28.541Z,30.60
2022-09-07T08:10:00.540Z,30.22
2022-09-07T08:12:31.673Z,29.83
2022-09-07T08:15:04.695Z,29.26
2022-09-07T08:17:36.652Z,28.58
2022-09-07T08:20:08.837Z,28.12
2022-09-07T08:22:40.111Z,27.71
2022-09-07T08:25:12.624Z,27.12
2022-09-07T08:27:43.999Z,26.54
2022-09-07T08:30:15.389Z,26.19
2022-09-07T08:32:46.235Z,25.93
2022-09-07T08:35:19.985Z,25.73
2022-09-07T08:37:50.940Z,25.61
2022-09-07T08:40:24.050Z,25.62
2022-09-07T08:43:04.915Z,25.48
2022-09-07T08:45:39.560Z,25.27
2022-09-07T08:48:15.712Z,25.03
2022-09-07T08:50:56.479Z,24.92
2022-09-07T08:53:28.320Z,24.91
2022-09-07T08:56:05.073Z,24.83
2022-09-07T08:58:49.253Z,24.73
2022-09-07T09:01:31.922Z,24.46
2022-09-07T09:04:21.461Z,24.16
2022-09-07T09:07:10.649Z,23.94
2022-09-07T09:10:07.298Z,23.90
2022-09-07T09:12:55.390Z,23.92
2022-09-07T09:15:35.124Z,23.90
2022-09-07T09:18:18.538Z,23.80
2022-09-07T09:20:54.738Z,23.69
2022-09-07T09:23:28.832Z,23.56
2022-09-07T09:26:03.334Z,23.36
2022-09-07T09:28:34.778Z,23.25
2022-09-07T09:31:07.099Z,23.19
2022-09-07T09:33:38.325Z,23.14
2022-09-07T09:36:26.981Z,23.11
2022-09-07T09:38:58.393Z,22.98
2022-09-07T09:41:38.402Z,22.92
2022-09-07T09:44:16.149Z,22.87
2022-09-07T09:49:54.237Z,22.69
2022-09-07T09:52:30.540Z,22.70
2022-09-07T09:55:23.531Z,22.74
2022-09-07T10:06:24.940Z,22.68
2022-09-07T10:08:59.215Z,22.59
2022-09-07T10:12:07.141Z,22.47
2022-09-07T10:14:44.791Z,22.36
2022-09-07T10:17:22.372Z,22.26
2022-09-07T10:19:54.265Z,22.21
2022-09-07T10:22:37.416Z,22.15
2022-09-07T10:25:30.903Z,22.04
2022-09-07T10:28:19.681Z,21.97
2022-09-07T10:31:14.779Z,22.03
2022-09-07T10:36:50.147Z,21.92
2022-09-07T10:39:26.265Z,21.86
2022-09-07T10:42:04.254Z,21.81
2022-09-07T10:44:59.202Z,21.79
2022-09-07T10:47:39.347Z,21.81
2022-09-07T10:50:22.540Z,21.76
2022-09-07T10:53:13.384Z,21.65
2022-09-07T10:56:01.271Z,21.56
2022-09-07T11:01:45.699Z,21.42
2022-09-07T11:04:41.576Z,21.46
2022-09-07T11:07:28.863Z,21.52
2022-09-07T11:10:09.320Z,21.49
2022-09-07T11:12:43.496Z,21.44
2022-09-07T11:15:23.819Z,21.44
2022-09-07T11:18:03.034Z,21.43
2022-09-07T11:20:41.548Z,21.42
2022-09-07T11:23:19.824Z,21.41
2022-09-07T11:26:00.275Z,21.36
2022-09-07T11:28:44.645Z,21.28
2022-09-07T11:31:24.498Z,21.22
2022-09-07T11:37:02.152Z,21.11
2022-09-07T11:39:40.671Z,21.07
2022-09-07T11:45:18.271Z,21.00
2022-09-07T11:47:55.484Z,20.96
2022-09-07T11:50:27.769Z,20.90
2022-09-07T11:53:04.913Z,20.86
2022-09-07T11:55:40.213Z,20.84
2022-09-07T11:58:36.392Z,20.84
2022-09-07T12:01:19.070Z,20.87
2022-09-07T12:04:16.866Z,20.90
2022-09-07T12:07:27.287Z,20.87
2022-09-07T12:10:14.378Z,20.85
2022-09-07T12:13:09.061Z,20.87
2022-09-07T12:15:52.736Z,20.90
2022-09-07T12:18:45.357Z,20.93
2022-09-07T12:21:36.067Z,20.95
2022-09-07T12:24:34.561Z,20.95
2022-09-07T12:27:06.914Z,20.91
2022-09-07T12:29:38.593Z,20.86
2022-09-07T12:35:04.236Z,20.78
2022-09-07T12:37:45.681Z,20.75
2022-09-07T12:40:49.041Z,20.73
2022-09-07T12:44:02.011Z,20.74
2022-09-07T12:46:48.459Z,20.77
2022-09-07T12:49:41.106Z,20.76
2022-09-07T12:52:34.313Z,20.73
2022-09-07T12:55:27.858Z,20.71
2022-09-07T12:58:13.460Z,20.69
2022-09-07T13:00:58.157Z,20.66
2022-09-07T13:04:03.704Z,20.62
2022-09-07T13:07:05.313Z,20.62
2022-09-07T13:09:42.166Z,20.62
2022-09-07T13:12:57.115Z,20.61
2022-09-07T13:15:48.613Z,20.60
2022-09-07T13:18:46.445Z,20.60
2022-09-07T13:21:39.685Z,20.58
2022-09-07T13:24:55.300Z,20.58
2022-09-07T13:27:58.973Z,20.62
2022-09-07T13:30:49.442Z,20.63
2022-09-07T13:33:46.194Z,20.67
2022-09-07T13:36:28.771Z,20.70
2022-09-07T13:39:00.918Z,20.68
2022-09-07T13:41:38.241Z,20.69
2022-09-07T13:44:25.804Z,20.67
2022-09-07T13:47:23.871Z,20.67
2022-09-07T13:50:11.605Z,20.65
2022-09-07T13:53:07.224Z,20.64
2022-09-07T13:55:52.765Z,20.63
2022-09-07T13:58:29.730Z,20.62
2022-09-07T14:01:03.509Z,20.61
2022-09-07T14:03:45.912Z,20.62
2022-09-07T14:06:34.463Z,20.61
2022-09-07T14:09:14.159Z,20.61
2022-09-07T14:11:47.992Z,20.61
2022-09-07T14:14:22.260Z,20.61
2022-09-07T14:16:58.873Z,20.59
2022-09-07T14:19:40.052Z,20.59
2022-09-07T14:22:17.242Z,20.60
2022-09-07T14:24:52.754Z,20.60
2022-09-07T14:27:25.941Z,20.58
2022-09-07T14:30:15.369Z,20.57
2022-09-07T14:32:53.729Z,20.57
2022-09-07T14:35:28.591Z,20.56
2022-09-07T14:38:08.038Z,20.56
2022-09-07T14:40:39.915Z,20.57
2022-09-07T14:43:30.940Z,20.57
2022-09-07T14:46:22.368Z,20.58
2022-09-07T14:48:55.583Z,20.61
2022-09-07T14:51:35.495Z,20.63
2022-09-07T14:54:10.599Z,20.63
2022-09-07T14:56:42.713Z,20.62
2022-09-07T14:59:37.312Z,20.61
2022-09-07T15:02:37.904Z,20.62
2022-09-07T15:05:29.900Z,20.63
2022-09-07T15:08:03.284Z,20.62
2022-09-07T15:11:32.960Z,20.62
2022-09-07T15:13:37.291Z,20.61
2022-09-07T15:16:23.328Z,20.60
2022-09-07T15:18:57.639Z,20.59
2022-09-07T15:21:32.189Z,20.58
2022-09-07T15:24:04.248Z,20.56
2022-09-07T15:29:33.150Z,20.55
2022-09-07T15:32:10.565Z,20.55
2022-09-07T15:34:43.344Z,20.53
2022-09-07T15:40:21.709Z,20.48
2022-09-07T15:43:00.660Z,20.45
2022-09-07T15:45:32.315Z,20.42
2022-09-07T15:48:04.466Z,20.40
2022-09-07T15:50:36.193Z,20.37
2022-09-07T15:54:06.642Z,20.33
2022-09-07T15:55:58.728Z,20.31
2022-09-07T15:58:31.933Z,20.28
2022-09-07T16:04:01.716Z,20.20
2022-09-07T16:06:36.403Z,20.17
2022-09-07T16:09:21.738Z,20.13
2022-09-07T16:14:56.394Z,20.04
2022-09-07T16:17:35.747Z,20.00
2022-09-07T16:20:12.856Z,19.95
2022-09-07T16:26:00.391Z,19.84
2022-09-07T16:28:35.413Z,19.77
2022-09-07T16:31:10.346Z,19.71
2022-09-07T16:33:48.212Z,19.68
2022-09-07T16:36:28.999Z,19.63
2022-09-07T16:39:01.753Z,19.58
2022-09-07T16:41:40.107Z,19.53
2022-09-07T16:44:11.553Z,19.49
2022-09-07T16:46:42.482Z,19.42
2022-09-07T16:49:15.449Z,19.36
2022-09-07T16:51:46.763Z,19.30
2022-09-07T16:54:18.268Z,19.25
2022-09-07T16:56:49.505Z,19.19
2022-09-07T16:59:26.812Z,19.14
2022-09-07T17:01:57.631Z,19.08
2022-09-07T17:04:29.150Z,19.03
2022-09-07T17:07:00.978Z,18.98
2022-09-07T17:09:32.007Z,18.95
2022-09-07T17:12:03.225Z,18.92
2022-09-07T17:14:35.388Z,18.87
2022-09-07T17:17:06.639Z,18.81
2022-09-07T17:19:37.909Z,18.77
2022-09-07T17:22:09.203Z,18.72
2022-09-07T17:24:42.424Z,18.66
2022-09-07T17:27:13.931Z,18.60
2022-09-07T17:29:45.337Z,18.54
2022-09-07T17:32:25.988Z,18.48
2022-09-07T17:34:58.155Z,18.41
2022-09-07T17:37:29.517Z,18.36
2022-09-07T17:40:05.418Z,18.33
2022-09-07T17:45:36.798Z,18.25
2022-09-07T17:48:09.289Z,18.21
2022-09-07T17:50:40.996Z,18.17
2022-09-07T17:53:12.086Z,18.14
2022-09-07T17:55:48.001Z,18.10
2022-09-07T17:58:19.935Z,18.04
2022-09-07T18:00:51.496Z,18.01
2022-09-07T18:03:23.046Z,17.97
2022-09-07T18:05:58.074Z,17.91
2022-09-07T18:08:28.191Z,17.86
2022-09-07T18:14:01.903Z,17.76
2022-09-07T18:16:35.912Z,17.70
2022-09-07T18:19:10.096Z,17.64
2022-09-07T18:21:43.239Z,17.58
2022-09-07T18:24:18.430Z,17.50
2022-09-07T18:26:53.655Z,17.42
2022-09-07T18:29:33.683Z,17.35
2022-09-07T18:32:09.863Z,17.25
2022-09-07T18:34:42.652Z,17.18
2022-09-07T18:37:16.459Z,17.10
2022-09-07T18:39:49.100Z,17.01
2022-09-07T18:42:29.246Z,16.95
2022-09-07T18:47:55.126Z,16.77
2022-09-07T18:50:31.826Z,16.71
2022-09-07T18:53:15.904Z,16.65
2022-09-07T18:55:50.895Z,16.59
2022-09-07T18:58:22.098Z,16.52
2022-09-07T19:00:58.050Z,16.47
2022-09-07T19:03:29.811Z,16.41
2022-09-07T19:06:03.952Z,16.36
2022-09-07T19:08:38.074Z,16.31
2022-09-07T19:11:11.145Z,16.27
2022-09-07T19:13:46.113Z,16.21
2022-09-07T19:16:19.492Z,16.16
2022-09-07T19:18:53.048Z,16.11
2022-09-07T19:21:27.328Z,16.07
2022-09-07T19:24:03.414Z,16.03
2022-09-07T19:26:40.440Z,16.00
2022-09-07T19:29:16.395Z,15.98
2022-09-07T19:32:04.437Z,15.96
2022-09-07T19:34:37.330Z,15.94
2022-09-07T19:37:10.438Z,15.92
2022-09-07T19:39:41.842Z,15.91
2022-09-07T19:42:15.684Z,15.91
2022-09-07T19:44:47.267Z,15.91
2022-09-07T19:47:18.643Z,15.91
2022-09-07T19:49:49.859Z,15.90
2022-09-07T19:52:20.864Z,15.90
2022-09-07T19:54:52.549Z,15.90
2022-09-07T19:57:24.061Z,15.89
2022-09-07T19:59:58.762Z,15.88
2022-09-07T20:02:32.643Z,15.87
2022-09-07T20:05:03.889Z,15.87
2022-09-07T20:07:35.447Z,15.87
2022-09-07T20:10:07.712Z,15.87
2022-09-07T20:12:42.887Z,15.87
2022-09-07T20:15:13.765Z,15.86
2022-09-07T20:17:47.439Z,15.85
2022-09-07T20:20:18.976Z,15.84
2022-09-07T20:22:51.457Z,15.84
2022-09-07T20:25:24.736Z,15.83
2022-09-07T20:27:56.002Z,15.81
2022-09-07T20:30:27.566Z,15.80
2022-09-07T20:32:58.577Z,15.79
2022-09-07T20:35:29.809Z,15.77
2022-09-07T20:38:03.469Z,15.75
2022-09-07T20:40:34.339Z,15.72
2022-09-07T20:43:05.690Z,15.70
2022-09-07T20:45:38.933Z,15.66
2022-09-07T20:48:09.851Z,15.63
2022-09-07T20:50:40.968Z,15.60
2022-09-07T20:53:11.827Z,15.57
2022-09-07T20:55:42.765Z,15.54
2022-09-07T20:58:13.628Z,15.49
2022-09-07T21:00:44.525Z,15.47
2022-09-07T21:03:15.349Z,15.44
2022-09-07T21:05:46.323Z,15.39
2022-09-07T21:08:17.577Z,15.35
2022-09-07T21:10:49.514Z,15.32
2022-09-07T21:13:20.386Z,15.29
2022-09-07T21:15:51.332Z,15.25
2022-09-07T21:18:22.232Z,15.21
2022-09-07T21:21:18.760Z,15.17
2022-09-07T21:23:50.341Z,15.13
2022-09-07T21:26:24.517Z,15.10
2022-09-07T21:29:00.204Z,15.08
2022-09-07T21:31:32.655Z,15.05
2022-09-07T21:34:04.327Z,15.02
2022-09-07T21:36:35.187Z,14.99
2022-09-07T21:39:08.155Z,14.97
2022-09-07T21:41:41.590Z,14.94
2022-09-07T21:44:14.930Z,14.93
2022-09-07T21:46:46.290Z,14.90
2022-09-07T21:49:17.170Z,14.89
2022-09-07T21:51:47.973Z,14.87
2022-09-07T21:54:18.797Z,14.85
2022-09-07T21:56:50.455Z,14.82
2022-09-07T21:59:21.425Z,14.80
2022-09-07T22:01:53.040Z,14.77
2022-09-07T22:04:23.886Z,14.74
2022-09-07T22:06:54.752Z,14.71
2022-09-07T22:09:25.625Z,14.68
2022-09-07T22:11:56.453Z,14.64
2022-09-07T22:14:27.370Z,14.61
2022-09-07T22:16:58.203Z,14.58
2022-09-07T22:19:29.019Z,14.54
2022-09-07T22:21:59.855Z,14.52
2022-09-07T22:24:31.030Z,14.48
2022-09-07T22:27:01.870Z,14.45
2022-09-07T22:29:32.784Z,14.41
2022-09-07T22:32:03.956Z,14.38
2022-09-07T22:34:34.822Z,14.35
2022-09-07T22:37:06.282Z,14.33
2022-09-07T22:39:37.161Z,14.29
2022-09-07T22:42:08.457Z,14.26
2022-09-07T22:44:39.679Z,14.23
2022-09-07T22:47:14.498Z,14.20
2022-09-07T22:49:45.382Z,14.18
2022-09-07T22:52:16.238Z,14.14
2022-09-07T22:54:47.087Z,14.12
2022-09-07T22:57:19.013Z,14.10
2022-09-07T22:59:49.908Z,14.06
2022-09-07T23:02:20.756Z,14.04
2022-09-07T23:04:51.765Z,14.02
2022-09-07T23:07:22.770Z,14.01
2022-09-07T23:09:53.569Z,13.98
2022-09-07T23:12:24.447Z,13.96
2022-09-07T23:14:55.237Z,13.95
2022-09-07T23:17:26.072Z,13.93
2022-09-07T23:19:56.954Z,13.90
2022-09-07T23:22:27.866Z,13.88
2022-09-07T23:24:58.662Z,13.85
2022-09-07T23:27:29.465Z,13.83
2022-09-07T23:30:00.387Z,13.80
2022-09-07T23:32:31.267Z,13.78
2022-09-07T23:35:02.794Z,13.75
2022-09-07T23:37:34.569Z,13.74
2022-09-07T23:40:06.671Z,13.71
2022-09-07T23:42:37.568Z,13.67
2022-09-07T23:45:09.939Z,13.65
2022-09-07T23:47:41.115Z,13.62
2022-09-07T23:50:12.984Z,13.61
2022-09-07T23:52:44.015Z,13.60
2022-09-07T23:55:15.187Z,13.58
2022-09-07T23:57:46.007Z,13.56
